createdAt,value
2022-08-24T00:02:18.093Z,22.73
2022-08-24T00:04:48.681Z,22.69
2022-08-24T00:07:27.551Z,22.65
2022-08-24T00:09:57.143Z,22.71
2022-08-24T00:12:26.331Z,22.52
2022-08-24T00:14:56.021Z,22.22
2022-08-24T00:17:25.779Z,22.27
2022-08-24T00:19:56.519Z,22.33
2022-08-24T00:22:26.202Z,22.32
2022-08-24T00:24:54.474Z,22.38
2022-08-24T00:27:23.486Z,22.36
2022-08-24T00:29:52.037Z,22.39
2022-08-24T00:32:23.481Z,22.33
2022-08-24T00:34:58.743Z,22.40
2022-08-24T00:37:29.141Z,22.38
2022-08-24T00:39:59.614Z,22.37
2022-08-24T00:42:29.385Z,22.44
2022-08-24T00:45:01.433Z,22.38
2022-08-24T00:47:37.424Z,22.26
2022-08-24T00:50:11.908Z,22.18
2022-08-24T00:52:45.336Z,22.12
2022-08-24T00:55:17.823Z,22.11
2022-08-24T00:57:49.778Z,22.14
2022-08-24T01:00:21.173Z,22.12
2022-08-24T01:02:53.290Z,22.09
2022-08-24T01:05:23.359Z,21.88
2022-08-24T01:07:52.535Z,21.89
2022-08-24T01:10:25.258Z,21.84
2022-08-24T01:13:01.049Z,21.64
2022-08-24T01:15:30.365Z,21.54
2022-08-24T01:18:16.197Z,21.49
2022-08-24T01:20:56.216Z,21.46
2022-08-24T01:23:39.066Z,21.48
2022-08-24T01:26:09.555Z,21.42
2022-08-24T01:28:42.166Z,21.39
2022-08-24T01:31:10.888Z,21.41
2022-08-24T01:33:40.823Z,21.47
2022-08-24T01:36:16.442Z,21.23
2022-08-24T01:38:47.561Z,21.39
2022-08-24T01:41:17.644Z,21.09
2022-08-24T01:43:45.925Z,21.01
2022-08-24T01:46:14.124Z,20.88
2022-08-24T01:48:42.818Z,20.86
2022-08-24T01:51:11.272Z,20.96
2022-08-24T01:53:41.070Z,20.92
2022-08-24T01:56:11.165Z,20.76
2022-08-24T01:58:45.642Z,20.76
2022-08-24T02:01:20.142Z,20.79
2022-08-24T02:03:48.484Z,20.63
2022-08-24T02:06:20.917Z,20.39
2022-08-24T02:08:49.248Z,20.45
2022-08-24T02:11:19.492Z,20.56
2022-08-24T02:13:47.921Z,20.46
2022-08-24T02:16:16.637Z,20.41
2022-08-24T02:18:45.088Z,20.53
2022-08-24T02:21:17.038Z,20.45
2022-08-24T02:23:45.483Z,20.58
2022-08-24T02:26:14.831Z,20.31
2022-08-24T02:28:45.155Z,20.39
2022-08-24T02:31:15.189Z,20.38
2022-08-24T02:33:43.994Z,20.36
2022-08-24T02:36:25.646Z,20.43
2022-08-24T02:38:55.324Z,20.22
2022-08-24T02:41:24.829Z,20.09
2022-08-24T02:43:56.956Z,20.07
2022-08-24T02:46:27.636Z,20.16
2022-08-24T02:49:10.431Z,20.29
2022-08-24T02:51:44.160Z,20.12
2022-08-24T02:54:18.488Z,20.10
2022-08-24T02:56:48.364Z,20.00
2022-08-24T02:59:18.792Z,19.99
2022-08-24T03:01:50.064Z,19.92
2022-08-24T03:04:18.890Z,19.64
2022-08-24T03:06:47.616Z,19.58
2022-08-24T03:09:17.382Z,19.66
2022-08-24T03:11:50.582Z,19.90
2022-08-24T03:14:22.041Z,19.80
2022-08-24T03:16:50.791Z,19.75
2022-08-24T03:19:20.528Z,20.04
2022-08-24T03:21:48.778Z,20.08
2022-08-24T03:24:17.501Z,20.15
2022-08-24T03:26:45.574Z,20.14
2022-08-24T03:29:15.841Z,19.87
2022-08-24T03:31:46.550Z,19.85
2022-08-24T03:34:15.554Z,19.83
2022-08-24T03:36:46.734Z,19.56
2022-08-24T03:39:15.649Z,19.50
2022-08-24T03:41:44.557Z,19.44
2022-08-24T03:44:13.015Z,19.50
2022-08-24T03:46:42.086Z,19.56
2022-08-24T03:49:12.077Z,19.39
2022-08-24T03:51:40.993Z,19.38
2022-08-24T03:54:11.705Z,19.43
2022-08-24T03:56:42.692Z,19.40
2022-08-24T03:59:12.257Z,19.43
2022-08-24T04:01:41.057Z,19.38
2022-08-24T04:04:09.326Z,19.27
2022-08-24T04:06:44.554Z,19.20
2022-08-24T04:09:13.413Z,19.43
2022-08-24T04:11:46.288Z,19.16
2022-08-24T04:14:23.601Z,19.22
2022-08-24T04:16:57.388Z,19.11
2022-08-24T04:19:29.232Z,19.13
2022-08-24T04:21:59.262Z,19.03
2022-08-24T04:24:28.289Z,19.01
2022-08-24T04:26:56.618Z,18.99
2022-08-24T04:29:25.766Z,19.12
2022-08-24T04:31:54.992Z,18.95
2022-08-24T04:34:24.092Z,19.03
2022-08-24T04:36:52.224Z,19.12
2022-08-24T04:39:23.536Z,19.23
2022-08-24T04:41:55.396Z,19.27
2022-08-24T04:44:23.709Z,18.94
2022-08-24T04:46:52.212Z,18.89
2022-08-24T04:49:20.827Z,18.93
2022-08-24T04:51:49.654Z,18.96
2022-08-24T04:54:18.275Z,19.04
2022-08-24T04:56:47.954Z,19.11
2022-08-24T04:59:16.715Z,19.18
2022-08-24T05:01:46.118Z,19.16
2022-08-24T05:04:14.725Z,19.17
2022-08-24T05:06:43.268Z,19.11
2022-08-24T05:09:12.469Z,19.20
2022-08-24T05:11:41.891Z,19.15
2022-08-24T05:14:19.650Z,19.13
2022-08-24T05:16:53.104Z,19.05
2022-08-24T05:19:23.414Z,19.03
2022-08-24T05:21:52.269Z,19.23
2022-08-24T05:24:21.300Z,19.40
2022-08-24T05:26:51.541Z,19.41
2022-08-24T05:29:26.631Z,19.50
2022-08-24T05:31:56.238Z,19.56
2022-08-24T05:34:26.025Z,19.50
2022-08-24T05:36:54.973Z,19.55
2022-08-24T05:39:27.010Z,19.56
2022-08-24T05:42:00.007Z,19.64
2022-08-24T05:44:32.023Z,19.82
2022-08-24T05:47:01.260Z,19.87
2022-08-24T05:49:30.337Z,19.94
2022-08-24T05:51:58.982Z,19.99
2022-08-24T05:54:28.533Z,20.25
2022-08-24T05:57:04.843Z,20.37
2022-08-24T05:59:36.888Z,20.29
2022-08-24T06:02:05.916Z,20.47
2022-08-24T06:04:35.465Z,20.34
2022-08-24T06:07:04.497Z,20.50
2022-08-24T06:09:32.933Z,20.52
2022-08-24T06:12:02.231Z,20.63
2022-08-24T06:14:34.655Z,20.71
2022-08-24T06:17:06.762Z,20.79
2022-08-24T06:19:37.424Z,20.58
2022-08-24T06:22:06.309Z,20.48
2022-08-24T06:24:55.449Z,20.77
2022-08-24T06:27:25.714Z,20.86
2022-08-24T06:29:56.721Z,21.02
2022-08-24T06:32:30.640Z,20.95
2022-08-24T06:35:00.118Z,21.29
2022-08-24T06:37:29.479Z,21.49
2022-08-24T06:39:59.598Z,21.65
2022-08-24T06:42:29.656Z,21.75
2022-08-24T06:45:00.420Z,21.85
2022-08-24T06:47:30.736Z,21.95
2022-08-24T06:50:01.620Z,22.06
2022-08-24T06:52:30.454Z,22.25
2022-08-24T06:54:59.157Z,22.26
2022-08-24T06:57:27.650Z,22.43
2022-08-24T06:59:58.726Z,22.55
2022-08-24T07:02:28.438Z,22.53
2022-08-24T07:04:58.563Z,22.61
2022-08-24T07:07:26.958Z,22.75
2022-08-24T07:09:55.969Z,23.01
2022-08-24T07:12:27.323Z,23.12
2022-08-24T07:14:56.005Z,23.19
2022-08-24T07:17:26.491Z,23.25
2022-08-24T07:19:58.532Z,23.19
2022-08-24T07:22:27.649Z,23.34
2022-08-24T07:24:58.084Z,23.61
2022-08-24T07:27:27.646Z,23.87
2022-08-24T07:30:23.130Z,24.07
2022-08-24T07:32:46.220Z,23.85
2022-08-24T07:35:17.834Z,24.16
2022-08-24T07:37:48.589Z,24.13
2022-08-24T07:40:19.819Z,24.42
2022-08-24T07:42:50.883Z,24.45
2022-08-24T07:45:20.026Z,24.46
2022-08-24T07:47:55.193Z,24.55
2022-08-24T07:50:26.885Z,24.69
2022-08-24T07:52:55.483Z,24.87
2022-08-24T07:55:24.034Z,24.73
2022-08-24T07:57:52.476Z,24.90
2022-08-24T08:00:22.025Z,25.16
2022-08-24T08:02:50.766Z,25.37
2022-08-24T08:05:21.856Z,25.20
2022-08-24T08:07:55.781Z,25.12
2022-08-24T08:10:24.654Z,25.30
2022-08-24T08:12:55.361Z,25.51
2022-08-24T08:15:27.159Z,25.30
2022-08-24T08:17:55.876Z,25.05
2022-08-24T08:20:25.068Z,25.52
2022-08-24T08:23:20.935Z,25.88
2022-08-24T08:25:50.049Z,26.04
2022-08-24T08:28:25.731Z,25.87
2022-08-24T08:30:55.361Z,26.31
2022-08-24T08:35:57.973Z,26.63
2022-08-24T08:38:28.988Z,26.88
2022-08-24T08:41:08.807Z,26.87
2022-08-24T08:43:45.145Z,27.34
2022-08-24T08:46:25.735Z,26.69
2022-08-24T08:49:09.169Z,26.76
2022-08-24T08:52:18.242Z,27.22
2022-08-24T08:54:59.636Z,27.29
2022-08-24T08:57:38.622Z,27.44
2022-08-24T09:00:18.058Z,27.13
2022-08-24T09:03:03.298Z,27.02
2022-08-24T09:05:59.042Z,27.51
2022-08-24T09:08:43.847Z,28.01
2022-08-24T09:11:32.629Z,28.18
2022-08-24T09:14:49.257Z,28.35
2022-08-24T09:17:53.922Z,28.58
2022-08-24T09:20:41.581Z,28.41
2022-08-24T09:23:23.673Z,28.59
2022-08-24T09:26:03.993Z,29.01
2022-08-24T09:28:44.691Z,28.86
2022-08-24T09:31:55.260Z,29.29
2022-08-24T09:34:48.360Z,29.82
2022-08-24T09:37:32.724Z,30.11
2022-08-24T09:40:18.709Z,30.60
2022-08-24T09:43:17.505Z,30.63
2022-08-24T09:46:25.570Z,30.80
2022-08-24T09:49:21.990Z,31.09
2022-08-24T09:52:10.819Z,31.13
2022-08-24T09:55:08.665Z,31.04
2022-08-24T09:58:00.499Z,31.42
2022-08-24T10:00:35.782Z,31.53
2022-08-24T10:03:15.733Z,31.88
2022-08-24T10:06:04.997Z,31.66
2022-08-24T10:08:59.146Z,31.61
2022-08-24T10:11:38.124Z,31.61
2022-08-24T10:14:18.198Z,31.42
2022-08-24T10:16:56.573Z,31.33
2022-08-24T10:19:47.798Z,31.88
2022-08-24T10:22:25.627Z,32.19
2022-08-24T10:25:11.526Z,32.49
2022-08-24T10:27:57.038Z,32.64
2022-08-24T10:30:59.377Z,32.86
2022-08-24T10:33:31.110Z,33.17
2022-08-24T10:36:42.500Z,32.55
2022-08-24T10:39:44.007Z,31.83
2022-08-24T10:42:54.939Z,32.28
2022-08-24T10:45:58.870Z,32.88
2022-08-24T10:48:51.570Z,33.19
2022-08-24T10:51:36.373Z,32.80
2022-08-24T10:54:09.019Z,33.24
2022-08-24T10:56:53.768Z,33.76
2022-08-24T10:59:27.313Z,34.40
2022-08-24T11:02:11.927Z,34.50
2022-08-24T11:04:41.851Z,34.44
2022-08-24T11:07:21.770Z,33.29
2022-08-24T11:09:53.695Z,33.72
2022-08-24T11:12:36.385Z,33.61
2022-08-24T11:15:11.701Z,34.17
2022-08-24T11:17:56.751Z,34.08
2022-08-24T11:20:32.125Z,33.76
2022-08-24T11:23:05.506Z,34.14
2022-08-24T11:25:40.475Z,34.49
2022-08-24T11:28:22.057Z,34.58
2022-08-24T11:30:51.284Z,34.81
2022-08-24T11:33:31.028Z,34.25
2022-08-24T11:36:02.918Z,32.68
2022-08-24T11:38:35.105Z,33.50
2022-08-24T11:41:10.228Z,33.90
2022-08-24T11:44:02.623Z,35.10
2022-08-24T11:46:38.218Z,35.34
2022-08-24T11:49:14.231Z,35.26
2022-08-24T11:51:56.584Z,35.48
2022-08-24T11:54:34.231Z,35.72
2022-08-24T11:57:09.665Z,35.93
2022-08-24T11:59:50.925Z,36.19
2022-08-24T12:02:29.258Z,36.19
2022-08-24T12:05:05.694Z,35.39
2022-08-24T12:07:51.718Z,35.11
2022-08-24T12:10:35.531Z,35.42
2022-08-24T12:13:10.865Z,35.52
2022-08-24T12:15:51.851Z,35.66
2022-08-24T12:18:32.922Z,35.72
2022-08-24T12:21:01.850Z,35.42
2022-08-24T12:23:41.399Z,35.35
2022-08-24T12:26:13.784Z,35.30
2022-08-24T12:28:53.641Z,35.51
2022-08-24T12:31:38.718Z,35.72
2022-08-24T12:34:14.805Z,35.74
2022-08-24T12:36:53.573Z,35.89
2022-08-24T12:39:27.000Z,36.06
2022-08-24T12:42:07.938Z,36.23
2022-08-24T12:44:47.575Z,36.07
2022-08-24T12:47:27.440Z,35.85
2022-08-24T12:50:02.500Z,35.66
2022-08-24T12:52:57.869Z,35.52
2022-08-24T12:56:19.261Z,35.71
2022-08-24T12:59:06.453Z,35.96
2022-08-24T13:01:38.238Z,36.42
2022-08-24T13:04:36.486Z,36.13
2022-08-24T13:07:09.485Z,36.68
2022-08-24T13:09:43.804Z,36.45
2022-08-24T13:12:50.368Z,36.45
2022-08-24T13:15:23.527Z,35.84
2022-08-24T13:17:53.398Z,36.48
2022-08-24T13:20:27.901Z,36.68
2022-08-24T13:23:07.898Z,36.36
2022-08-24T13:25:56.967Z,36.00
2022-08-24T13:28:46.616Z,35.43
2022-08-24T13:31:25.310Z,36.02
2022-08-24T13:33:57.434Z,36.39
2022-08-24T13:36:49.883Z,36.39
2022-08-24T13:39:56.354Z,37.00
2022-08-24T13:42:45.335Z,36.57
2022-08-24T13:45:23.285Z,36.33
2022-08-24T13:48:04.702Z,36.79
2022-08-24T13:50:40.025Z,36.50
2022-08-24T13:53:31.813Z,36.66
2022-08-24T13:56:45.572Z,36.31
2022-08-24T13:59:22.715Z,36.12
2022-08-24T14:02:06.738Z,36.28
2022-08-24T14:04:43.384Z,37.10
2022-08-24T14:07:21.969Z,37.68
2022-08-24T14:10:08.860Z,37.89
2022-08-24T14:13:00.213Z,37.87
2022-08-24T14:15:49.266Z,37.48
2022-08-24T14:18:26.695Z,37.36
2022-08-24T14:21:09.353Z,36.81
2022-08-24T14:24:01.028Z,36.86
2022-08-24T14:27:18.074Z,36.53
2022-08-24T14:29:49.340Z,36.56
2022-08-24T14:32:46.414Z,36.95
2022-08-24T14:35:36.371Z,36.66
2022-08-24T14:38:23.010Z,37.32
2022-08-24T14:41:08.038Z,36.74
2022-08-24T14:43:58.264Z,37.28
2022-08-24T14:46:37.394Z,37.31
2022-08-24T14:49:15.657Z,37.09
2022-08-24T14:52:11.606Z,36.96
2022-08-24T14:54:54.457Z,36.81
2022-08-24T14:58:17.848Z,36.91
2022-08-24T15:01:13.944Z,36.78
2022-08-24T15:04:17.919Z,36.79
2022-08-24T15:07:24.869Z,36.40
2022-08-24T15:09:57.114Z,36.72
2022-08-24T15:12:35.564Z,35.97
2022-08-24T15:15:13.376Z,36.26
2022-08-24T15:17:53.709Z,36.26
2022-08-24T15:20:49.367Z,35.98
2022-08-24T15:23:25.128Z,35.87
2022-08-24T15:25:57.179Z,35.26
2022-08-24T15:28:28.772Z,35.54
2022-08-24T15:31:00.329Z,35.47
2022-08-24T15:33:32.286Z,36.00
2022-08-24T15:36:12.142Z,35.91
2022-08-24T15:38:42.280Z,35.76
2022-08-24T15:41:19.162Z,35.26
2022-08-24T15:43:53.664Z,35.24
2022-08-24T15:46:28.047Z,35.10
2022-08-24T15:49:04.726Z,34.75
2022-08-24T15:51:45.189Z,34.68
2022-08-24T15:54:31.239Z,34.51
2022-08-24T15:57:02.850Z,34.71
2022-08-24T15:59:47.354Z,34.84
2022-08-24T16:02:30.780Z,34.82
2022-08-24T16:05:15.244Z,34.99
2022-08-24T16:08:10.305Z,35.12
2022-08-24T16:10:41.998Z,35.09
2022-08-24T16:13:20.872Z,35.25
2022-08-24T16:15:51.513Z,35.29
2022-08-24T16:18:32.309Z,35.29
2022-08-24T16:21:01.986Z,35.41
2022-08-24T16:23:33.466Z,35.61
2022-08-24T16:26:21.285Z,35.53
2022-08-24T16:28:50.877Z,35.63
2022-08-24T16:31:53.642Z,35.32
2022-08-24T16:34:31.238Z,35.72
2022-08-24T16:37:00.073Z,35.74
2022-08-24T16:39:30.749Z,36.07
2022-08-24T16:42:05.507Z,36.19
2022-08-24T16:44:38.581Z,36.63
2022-08-24T16:47:09.082Z,36.53
2022-08-24T16:49:38.070Z,37.22
2022-08-24T16:52:06.852Z,36.91
2022-08-24T16:54:37.478Z,37.00
2022-08-24T16:57:12.852Z,37.11
2022-08-24T16:59:44.287Z,36.84
2022-08-24T17:02:13.224Z,36.49
2022-08-24T17:04:42.838Z,36.41
2022-08-24T17:07:14.734Z,36.45
2022-08-24T17:09:47.914Z,36.37
2022-08-24T17:12:17.254Z,36.53
2022-08-24T17:14:46.331Z,36.21
2022-08-24T17:17:17.044Z,36.07
2022-08-24T17:19:53.442Z,35.69
2022-08-24T17:22:24.844Z,35.45
2022-08-24T17:24:57.412Z,35.10
2022-08-24T17:27:32.758Z,34.83
2022-08-24T17:30:02.220Z,34.38
2022-08-24T17:32:30.869Z,34.10
2022-08-24T17:35:03.365Z,33.91
2022-08-24T17:37:32.338Z,33.91
2022-08-24T17:40:04.874Z,33.64
2022-08-24T17:42:50.425Z,33.30
2022-08-24T17:45:23.014Z,32.91
2022-08-24T17:47:53.036Z,32.93
2022-08-24T17:50:25.425Z,32.70
2022-08-24T17:53:06.648Z,32.44
2022-08-24T17:55:36.793Z,33.00
2022-08-24T17:58:08.407Z,33.35
2022-08-24T18:00:39.713Z,33.47
2022-08-24T18:03:10.547Z,33.36
2022-08-24T18:05:42.296Z,33.26
2022-08-24T18:08:12.109Z,33.42
2022-08-24T18:10:42.517Z,33.32
2022-08-24T18:13:12.354Z,32.87
2022-08-24T18:15:41.347Z,32.24
2022-08-24T18:18:10.565Z,32.12
2022-08-24T18:20:42.069Z,31.99
2022-08-24T18:23:11.827Z,31.66
2022-08-24T18:25:48.243Z,31.44
2022-08-24T18:28:18.738Z,31.31
2022-08-24T18:30:48.548Z,31.02
2022-08-24T18:33:17.705Z,30.76
2022-08-24T18:35:47.802Z,30.47
2022-08-24T18:38:16.400Z,30.40
2022-08-24T18:40:52.877Z,30.42
2022-08-24T18:43:24.651Z,30.33
2022-08-24T18:45:54.763Z,30.12
2022-08-24T18:48:24.222Z,30.12
2022-08-24T18:50:53.473Z,30.00
2022-08-24T18:53:24.739Z,30.05
2022-08-24T18:55:55.931Z,29.75
2022-08-24T18:58:24.494Z,29.32
2022-08-24T19:00:53.949Z,29.61
2022-08-24T19:03:25.420Z,29.51
2022-08-24T19:05:54.839Z,29.22
2022-08-24T19:08:23.276Z,29.06
2022-08-24T19:10:54.235Z,29.03
2022-08-24T19:13:26.209Z,29.04
2022-08-24T19:15:56.202Z,28.78
2022-08-24T19:18:25.043Z,28.69
2022-08-24T19:20:59.242Z,28.65
2022-08-24T19:23:31.383Z,28.44
2022-08-24T19:26:03.268Z,28.47
2022-08-24T19:28:32.364Z,28.41
2022-08-24T19:31:04.120Z,28.12
2022-08-24T19:33:38.888Z,27.99
2022-08-24T19:36:10.141Z,27.82
2022-08-24T19:38:39.999Z,27.77
2022-08-24T19:41:14.270Z,27.48
2022-08-24T19:43:57.336Z,27.71
2022-08-24T19:46:26.749Z,27.17
2022-08-24T19:48:56.879Z,27.28
2022-08-24T19:51:27.022Z,27.37
2022-08-24T19:53:58.034Z,27.12
2022-08-24T19:56:28.257Z,27.13
2022-08-24T19:59:02.432Z,26.98
2022-08-24T20:01:41.894Z,27.02
2022-08-24T20:04:10.526Z,26.84
2022-08-24T20:06:41.363Z,26.89
2022-08-24T20:09:10.809Z,26.65
2022-08-24T20:11:41.149Z,26.50
2022-08-24T20:14:09.796Z,26.47
2022-08-24T20:16:42.312Z,26.58
2022-08-24T20:19:12.958Z,26.23
2022-08-24T20:21:41.668Z,26.35
2022-08-24T20:24:12.823Z,26.17
2022-08-24T20:26:46.122Z,26.38
2022-08-24T20:29:15.673Z,26.28
2022-08-24T20:31:45.514Z,26.20
2022-08-24T20:34:17.127Z,25.96
2022-08-24T20:36:50.616Z,26.02
2022-08-24T20:39:23.202Z,26.07
2022-08-24T20:41:54.819Z,26.02
2022-08-24T20:44:25.216Z,25.91
2022-08-24T20:46:57.120Z,26.06
2022-08-24T20:49:28.290Z,26.02
2022-08-24T20:52:02.121Z,25.98
2022-08-24T20:54:30.685Z,25.76
2022-08-24T20:57:03.697Z,25.80
2022-08-24T20:59:32.478Z,25.86
2022-08-24T21:02:03.574Z,25.81
2022-08-24T21:04:34.643Z,25.84
2022-08-24T21:07:03.025Z,25.82
2022-08-24T21:09:34.270Z,25.65
2022-08-24T21:12:04.780Z,25.67
2022-08-24T21:14:33.476Z,25.77
2022-08-24T21:17:04.826Z,25.62
2022-08-24T21:19:36.160Z,25.61
2022-08-24T21:22:05.430Z,25.54
2022-08-24T21:24:35.063Z,25.57
2022-08-24T21:27:07.526Z,25.32
2022-08-24T21:29:37.762Z,25.27
2022-08-24T21:32:23.538Z,25.28
2022-08-24T21:34:52.149Z,25.36
2022-08-24T21:37:21.405Z,25.22
2022-08-24T21:39:50.252Z,25.14
2022-08-24T21:42:21.041Z,25.21
2022-08-24T21:44:49.488Z,25.00
2022-08-24T21:47:17.978Z,25.08
2022-08-24T21:49:47.426Z,25.05
2022-08-24T21:52:16.032Z,24.92
2022-08-24T21:54:45.315Z,24.99
2022-08-24T21:57:13.646Z,24.96
2022-08-24T21:59:46.924Z,25.09
2022-08-24T22:02:20.659Z,24.88
2022-08-24T22:04:56.142Z,24.77
2022-08-24T22:07:25.754Z,24.86
2022-08-24T22:09:57.884Z,24.72
2022-08-24T22:12:26.515Z,24.61
2022-08-24T22:14:56.925Z,24.60
2022-08-24T22:17:26.409Z,24.81
2022-08-24T22:19:55.177Z,24.69
2022-08-24T22:22:24.323Z,24.69
2022-08-24T22:24:59.898Z,24.78
2022-08-24T22:27:28.426Z,24.69
2022-08-24T22:29:59.064Z,24.64
2022-08-24T22:32:28.290Z,24.68
2022-08-24T22:34:58.393Z,24.73
2022-08-24T22:37:27.138Z,24.90
2022-08-24T22:39:55.653Z,24.70
2022-08-24T22:42:23.958Z,24.71
2022-08-24T22:44:52.444Z,24.62
2022-08-24T22:47:24.242Z,24.60
2022-08-24T22:49:54.878Z,24.82
2022-08-24T22:52:23.397Z,24.72
2022-08-24T22:54:51.844Z,24.48
2022-08-24T22:57:20.235Z,24.42
2022-08-24T22:59:50.486Z,24.63
2022-08-24T23:02:19.994Z,24.55
2022-08-24T23:04:52.917Z,24.51
2022-08-24T23:07:22.112Z,24.29
2022-08-24T23:09:51.249Z,24.36
2022-08-24T23:12:24.328Z,24.32
2022-08-24T23:14:53.686Z,24.19
2022-08-24T23:17:23.486Z,24.09
2022-08-24T23:20:01.755Z,24.19
2022-08-24T23:22:33.821Z,24.12
2022-08-24T23:25:03.716Z,24.09
2022-08-24T23:27:37.591Z,24.11
2022-08-24T23:30:10.531Z,24.10
2022-08-24T23:32:39.203Z,24.09
2022-08-24T23:35:12.288Z,24.02
2022-08-24T23:37:42.306Z,24.17
2022-08-24T23:40:11.821Z,24.11
2022-08-24T23:42:40.229Z,24.09
2022-08-24T23:45:11.945Z,24.08
2022-08-24T23:47:41.077Z,24.02
2022-08-24T23:50:12.313Z,23.91
2022-08-24T23:52:41.559Z,23.84
2022-08-24T23:55:21.082Z,23.79
2022-08-24T23:57:52.649Z,23.75
